sensor_id;sensor_type;location;lat;lon;timestamp;temperature;humidity
843;DHT22;407;48.884;9.126;2023-04-16T00:00:31;8.50;10.20
843;DHT22;407;48.884;9.126;2023-04-16T00:02:56;8.50;17.30
843;DHT22;407;48.884;9.126;2023-04-16T00:05:22;8.60;13.10
843;DHT22;407;48.884;9.126;2023-04-16T00:07:48;8.60;9.90
843;DHT22;407;48.884;9.126;2023-04-16T00:10:15;8.60;21.00
843;DHT22;407;48.884;9.126;2023-04-16T00:12:41;8.60;10.70
843;DHT22;407;48.884;9.126;2023-04-16T00:15:07;8.60;1.50
843;DHT22;407;48.884;9.126;2023-04-16T00:17:33;8.60;6.70
843;DHT22;407;48.884;9.126;2023-04-16T00:19:58;8.60;5.60
843;DHT22;407;48.884;9.126;2023-04-16T00:22:24;8.50;14.90
843;DHT22;407;48.884;9.126;2023-04-16T00:24:50;8.60;21.90
843;DHT22;407;48.884;9.126;2023-04-16T00:27:15;8.60;21.40
843;DHT22;407;48.884;9.126;2023-04-16T00:29:41;8.60;1.00
843;DHT22;407;48.884;9.126;2023-04-16T00:32:07;8.50;1.00
843;DHT22;407;48.884;9.126;2023-04-16T00:34:32;8.60;12.40
843;DHT22;407;48.884;9.126;2023-04-16T00:36:58;8.60;5.60
843;DHT22;407;48.884;9.126;2023-04-16T00:39:24;8.70;1.00
843;DHT22;407;48.884;9.126;2023-04-16T00:41:49;8.60;1.00
843;DHT22;407;48.884;9.126;2023-04-16T00:44:15;8.60;9.80
843;DHT22;407;48.884;9.126;2023-04-16T00:46:41;9.10;5.40
843;DHT22;407;48.884;9.126;2023-04-16T00:49:07;8.60;7.40
843;DHT22;407;48.884;9.126;2023-04-16T00:51:34;8.50;18.40
843;DHT22;407;48.884;9.126;2023-04-16T00:54:00;9.60;10.70
843;DHT22;407;48.884;9.126;2023-04-16T00:56:27;8.70;1.00
843;DHT22;407;48.884;9.126;2023-04-16T00:58:54;8.60;1.00
843;DHT22;407;48.884;9.126;2023-04-16T01:01:20;8.60;3.00
843;DHT22;407;48.884;9.126;2023-04-16T01:03:47;10.20;6.80
843;DHT22;407;48.884;9.126;2023-04-16T01:06:14;8.60;11.30
843;DHT22;407;48.884;9.126;2023-04-16T01:08:40;8.60;1.00
843;DHT22;407;48.884;9.126;2023-04-16T01:11:06;8.60;1.00
843;DHT22;407;48.884;9.126;2023-04-16T01:13:32;8.60;3.30
843;DHT22;407;48.884;9.126;2023-04-16T01:15:59;8.60;10.10
843;DHT22;407;48.884;9.126;2023-04-16T01:18:25;8.50;9.80
843;DHT22;407;48.884;9.126;2023-04-16T01:20:51;8.50;16.30
843;DHT22;407;48.884;9.126;2023-04-16T01:23:17;8.50;18.60
843;DHT22;407;48.884;9.126;2023-04-16T01:25:44;8.50;12.10
843;DHT22;407;48.884;9.126;2023-04-16T01:28:10;8.40;22.30
843;DHT22;407;48.884;9.126;2023-04-16T01:30:36;8.50;32.80
843;DHT22;407;48.884;9.126;2023-04-16T01:33:01;8.50;4.10
843;DHT22;407;48.884;9.126;2023-04-16T01:35:27;8.50;17.00
843;DHT22;407;48.884;9.126;2023-04-16T01:37:53;8.50;16.40
843;DHT22;407;48.884;9.126;2023-04-16T01:40:19;10.20;30.00
843;DHT22;407;48.884;9.126;2023-04-16T01:42:44;8.40;13.20
843;DHT22;407;48.884;9.126;2023-04-16T01:45:10;8.30;39.70
843;DHT22;407;48.884;9.126;2023-04-16T01:47:36;8.40;36.40
843;DHT22;407;48.884;9.126;2023-04-16T01:50:03;9.60;52.20
843;DHT22;407;48.884;9.126;2023-04-16T01:52:28;8.50;33.50
843;DHT22;407;48.884;9.126;2023-04-16T01:54:54;8.50;29.70
843;DHT22;407;48.884;9.126;2023-04-16T01:57:20;8.40;34.30
843;DHT22;407;48.884;9.126;2023-04-16T01:59:45;8.40;30.10
843;DHT22;407;48.884;9.126;2023-04-16T02:02:12;9.90;43.30
843;DHT22;407;48.884;9.126;2023-04-16T02:04:41;9.20;58.30
843;DHT22;407;48.884;9.126;2023-04-16T02:07:07;8.50;29.10
843;DHT22;407;48.884;9.126;2023-04-16T02:09:34;8.50;46.90
843;DHT22;407;48.884;9.126;2023-04-16T02:12:00;9.30;34.00
843;DHT22;407;48.884;9.126;2023-04-16T02:14:27;8.80;26.50
843;DHT22;407;48.884;9.126;2023-04-16T02:16:53;8.50;22.60
843;DHT22;407;48.884;9.126;2023-04-16T02:19:19;8.50;37.40
843;DHT22;407;48.884;9.126;2023-04-16T02:21:45;8.50;19.40
843;DHT22;407;48.884;9.126;2023-04-16T02:24:10;8.40;17.50
843;DHT22;407;48.884;9.126;2023-04-16T02:26:36;9.20;38.10
843;DHT22;407;48.884;9.126;2023-04-16T02:29:01;8.50;30.10
843;DHT22;407;48.884;9.126;2023-04-16T02:31:27;8.40;45.50
843;DHT22;407;48.884;9.126;2023-04-16T02:33:54;8.40;41.00
843;DHT22;407;48.884;9.126;2023-04-16T02:36:19;8.30;52.30
843;DHT22;407;48.884;9.126;2023-04-16T02:38:45;8.20;57.40
843;DHT22;407;48.884;9.126;2023-04-16T02:41:11;8.20;84.40
843;DHT22;407;48.884;9.126;2023-04-16T02:43:37;8.20;76.80
843;DHT22;407;48.884;9.126;2023-04-16T02:46:02;8.30;67.30
843;DHT22;407;48.884;9.126;2023-04-16T02:48:28;8.20;58.00
843;DHT22;407;48.884;9.126;2023-04-16T02:50:54;9.10;86.80
843;DHT22;407;48.884;9.126;2023-04-16T02:53:20;8.90;55.30
843;DHT22;407;48.884;9.126;2023-04-16T02:55:53;8.40;59.20
843;DHT22;407;48.884;9.126;2023-04-16T02:58:20;8.40;47.10
843;DHT22;407;48.884;9.126;2023-04-16T03:00:46;8.30;40.40
843;DHT22;407;48.884;9.126;2023-04-16T03:03:12;8.40;65.80
843;DHT22;407;48.884;9.126;2023-04-16T03:05:37;8.40;56.30
843;DHT22;407;48.884;9.126;2023-04-16T03:08:03;8.50;37.30
843;DHT22;407;48.884;9.126;2023-04-16T03:10:29;8.50;47.10
843;DHT22;407;48.884;9.126;2023-04-16T03:12:55;9.20;46.50
843;DHT22;407;48.884;9.126;2023-04-16T03:15:20;9.30;19.30
843;DHT22;407;48.884;9.126;2023-04-16T03:17:46;8.20;52.90
843;DHT22;407;48.884;9.126;2023-04-16T03:20:12;8.30;72.00
843;DHT22;407;48.884;9.126;2023-04-16T03:22:39;8.40;48.50
843;DHT22;407;48.884;9.126;2023-04-16T03:25:05;8.40;33.70
843;DHT22;407;48.884;9.126;2023-04-16T03:27:32;8.50;43.50
843;DHT22;407;48.884;9.126;2023-04-16T03:29:57;8.50;32.80
843;DHT22;407;48.884;9.126;2023-04-16T03:32:23;8.40;35.40
843;DHT22;407;48.884;9.126;2023-04-16T03:34:48;8.40;29.60
843;DHT22;407;48.884;9.126;2023-04-16T03:37:14;8.40;36.80
843;DHT22;407;48.884;9.126;2023-04-16T03:39:40;8.40;28.80
843;DHT22;407;48.884;9.126;2023-04-16T03:42:05;8.50;27.70
843;DHT22;407;48.884;9.126;2023-04-16T03:44:31;8.50;33.20
843;DHT22;407;48.884;9.126;2023-04-16T03:46:57;9.00;37.60
843;DHT22;407;48.884;9.126;2023-04-16T03:49:22;8.40;40.10
843;DHT22;407;48.884;9.126;2023-04-16T03:51:48;8.30;34.00
843;DHT22;407;48.884;9.126;2023-04-16T03:54:13;8.30;39.20
843;DHT22;407;48.884;9.126;2023-04-16T03:56:39;8.20;66.20
843;DHT22;407;48.884;9.126;2023-04-16T03:59:06;7.60;60.30
843;DHT22;407;48.884;9.126;2023-04-16T04:01:31;8.30;50.10
843;DHT22;407;48.884;9.126;2023-04-16T04:03:57;10.00;23.30
843;DHT22;407;48.884;9.126;2023-04-16T04:06:22;8.40;38.80
843;DHT22;407;48.884;9.126;2023-04-16T04:08:48;8.30;29.50
843;DHT22;407;48.884;9.126;2023-04-16T04:11:14;8.30;45.70
843;DHT22;407;48.884;9.126;2023-04-16T04:13:39;8.20;59.00
843;DHT22;407;48.884;9.126;2023-04-16T04:16:05;8.30;48.90
843;DHT22;407;48.884;9.126;2023-04-16T04:18:31;8.30;52.80
843;DHT22;407;48.884;9.126;2023-04-16T04:20:56;8.30;48.00
843;DHT22;407;48.884;9.126;2023-04-16T04:23:23;8.30;55.00
843;DHT22;407;48.884;9.126;2023-04-16T04:25:48;8.30;56.90
843;DHT22;407;48.884;9.126;2023-04-16T04:28:14;8.30;53.30
843;DHT22;407;48.884;9.126;2023-04-16T04:30:40;9.50;49.60
843;DHT22;407;48.884;9.126;2023-04-16T04:33:06;8.40;50.10
843;DHT22;407;48.884;9.126;2023-04-16T04:35:32;8.50;45.80
843;DHT22;407;48.884;9.126;2023-04-16T04:37:57;8.50;24.90
843;DHT22;407;48.884;9.126;2023-04-16T04:40:23;8.50;28.30
843;DHT22;407;48.884;9.126;2023-04-16T04:42:48;8.50;24.20
843;DHT22;407;48.884;9.126;2023-04-16T04:45:14;8.50;20.40
843;DHT22;407;48.884;9.126;2023-04-16T04:47:40;8.50;18.40
843;DHT22;407;48.884;9.126;2023-04-16T04:50:06;8.50;18.30
843;DHT22;407;48.884;9.126;2023-04-16T04:52:32;8.60;16.80
843;DHT22;407;48.884;9.126;2023-04-16T04:54:57;8.60;10.80
843;DHT22;407;48.884;9.126;2023-04-16T04:57:23;8.40;23.80
843;DHT22;407;48.884;9.126;2023-04-16T04:59:48;8.40;22.70
843;DHT22;407;48.884;9.126;2023-04-16T05:02:14;8.40;12.70
843;DHT22;407;48.884;9.126;2023-04-16T05:04:40;9.00;23.10
843;DHT22;407;48.884;9.126;2023-04-16T05:07:05;8.40;24.10
843;DHT22;407;48.884;9.126;2023-04-16T05:09:31;8.30;10.60
843;DHT22;407;48.884;9.126;2023-04-16T05:11:57;8.30;29.00
843;DHT22;407;48.884;9.126;2023-04-16T05:14:23;8.30;38.70
843;DHT22;407;48.884;9.126;2023-04-16T05:16:48;8.30;51.00
843;DHT22;407;48.884;9.126;2023-04-16T05:19:15;8.20;56.40
843;DHT22;407;48.884;9.126;2023-04-16T05:21:41;8.30;56.20
843;DHT22;407;48.884;9.126;2023-04-16T05:24:07;9.10;55.20
843;DHT22;407;48.884;9.126;2023-04-16T05:26:32;8.40;56.40
843;DHT22;407;48.884;9.126;2023-04-16T05:28:58;8.50;51.80
843;DHT22;407;48.884;9.126;2023-04-16T05:31:24;8.60;36.70
843;DHT22;407;48.884;9.126;2023-04-16T05:33:49;8.50;27.50
843;DHT22;407;48.884;9.126;2023-04-16T05:36:16;8.40;35.80
843;DHT22;407;48.884;9.126;2023-04-16T05:38:42;8.40;50.40
843;DHT22;407;48.884;9.126;2023-04-16T05:41:08;8.40;36.20
843;DHT22;407;48.884;9.126;2023-04-16T05:43:33;8.50;19.10
843;DHT22;407;48.884;9.126;2023-04-16T05:45:59;8.50;39.20
843;DHT22;407;48.884;9.126;2023-04-16T05:48:24;9.00;40.00
843;DHT22;407;48.884;9.126;2023-04-16T05:50:50;8.30;67.10
843;DHT22;407;48.884;9.126;2023-04-16T05:53:15;8.60;71.90
843;DHT22;407;48.884;9.126;2023-04-16T05:55:43;8.20;88.60
843;DHT22;407;48.884;9.126;2023-04-16T05:58:09;8.90;90.40
843;DHT22;407;48.884;9.126;2023-04-16T06:00:34;8.20;99.90
843;DHT22;407;48.884;9.126;2023-04-16T06:03:01;8.40;95.00
843;DHT22;407;48.884;9.126;2023-04-16T06:05:26;8.40;55.30
843;DHT22;407;48.884;9.126;2023-04-16T06:07:52;8.50;56.40
843;DHT22;407;48.884;9.126;2023-04-16T06:10:18;8.50;45.50
843;DHT22;407;48.884;9.126;2023-04-16T06:12:43;8.50;30.30
843;DHT22;407;48.884;9.126;2023-04-16T06:15:09;8.40;48.90
843;DHT22;407;48.884;9.126;2023-04-16T06:17:35;8.30;65.10
843;DHT22;407;48.884;9.126;2023-04-16T06:20:00;8.30;50.60
843;DHT22;407;48.884;9.126;2023-04-16T06:22:26;8.80;70.90
843;DHT22;407;48.884;9.126;2023-04-16T06:24:52;8.20;83.30
843;DHT22;407;48.884;9.126;2023-04-16T06:27:18;8.30;82.40
843;DHT22;407;48.884;9.126;2023-04-16T06:29:43;8.30;54.20
843;DHT22;407;48.884;9.126;2023-04-16T06:32:09;9.00;64.20
843;DHT22;407;48.884;9.126;2023-04-16T06:34:36;8.30;84.90
843;DHT22;407;48.884;9.126;2023-04-16T06:37:01;7.30;61.70
843;DHT22;407;48.884;9.126;2023-04-16T06:39:27;8.40;68.70
843;DHT22;407;48.884;9.126;2023-04-16T06:41:52;8.30;48.40
843;DHT22;407;48.884;9.126;2023-04-16T06:44:18;8.40;59.70
843;DHT22;407;48.884;9.126;2023-04-16T06:46:43;8.50;51.90
843;DHT22;407;48.884;9.126;2023-04-16T06:49:09;8.40;45.50
843;DHT22;407;48.884;9.126;2023-04-16T06:51:34;8.50;29.40
843;DHT22;407;48.884;9.126;2023-04-16T06:54:00;8.40;38.10
843;DHT22;407;48.884;9.126;2023-04-16T06:56:26;8.40;55.80
843;DHT22;407;48.884;9.126;2023-04-16T06:58:52;8.60;32.10
843;DHT22;407;48.884;9.126;2023-04-16T07:01:17;8.40;28.30
843;DHT22;407;48.884;9.126;2023-04-16T07:03:43;8.50;45.30
843;DHT22;407;48.884;9.126;2023-04-16T07:06:09;8.80;28.90
843;DHT22;407;48.884;9.126;2023-04-16T07:08:35;8.70;4.50
843;DHT22;407;48.884;9.126;2023-04-16T07:11:01;8.70;9.50
843;DHT22;407;48.884;9.126;2023-04-16T07:13:26;8.70;17.90
843;DHT22;407;48.884;9.126;2023-04-16T07:15:52;9.70;1.00
843;DHT22;407;48.884;9.126;2023-04-16T07:18:18;10.00;1.00
843;DHT22;407;48.884;9.126;2023-04-16T07:20:44;8.70;1.00
843;DHT22;407;48.884;9.126;2023-04-16T07:23:10;8.80;6.70
843;DHT22;407;48.884;9.126;2023-04-16T07:25:35;8.60;2.10
843;DHT22;407;48.884;9.126;2023-04-16T07:28:02;8.60;2.90
843;DHT22;407;48.884;9.126;2023-04-16T07:30:28;8.70;15.00
843;DHT22;407;48.884;9.126;2023-04-16T07:32:59;8.80;10.70
843;DHT22;407;48.884;9.126;2023-04-16T07:35:25;8.80;2.00
843;DHT22;407;48.884;9.126;2023-04-16T07:37:51;8.80;1.00
843;DHT22;407;48.884;9.126;2023-04-16T07:40:17;8.90;1.00
843;DHT22;407;48.884;9.126;2023-04-16T07:42:42;8.90;1.00
843;DHT22;407;48.884;9.126;2023-04-16T07:45:08;8.90;1.00
843;DHT22;407;48.884;9.126;2023-04-16T07:47:35;9.00;1.00
843;DHT22;407;48.884;9.126;2023-04-16T07:50:01;9.10;1.00
843;DHT22;407;48.884;9.126;2023-04-16T07:52:26;9.10;1.00
843;DHT22;407;48.884;9.126;2023-04-16T07:54:52;9.10;1.00
843;DHT22;407;48.884;9.126;2023-04-16T07:57:18;8.90;1.00
843;DHT22;407;48.884;9.126;2023-04-16T07:59:44;8.90;1.00
843;DHT22;407;48.884;9.126;2023-04-16T08:02:13;8.90;1.00
843;DHT22;407;48.884;9.126;2023-04-16T08:04:39;8.80;1.00
843;DHT22;407;48.884;9.126;2023-04-16T08:07:05;8.80;1.00
843;DHT22;407;48.884;9.126;2023-04-16T08:09:31;8.90;1.00
843;DHT22;407;48.884;9.126;2023-04-16T08:11:58;9.00;1.00
843;DHT22;407;48.884;9.126;2023-04-16T08:14:25;9.00;1.00
843;DHT22;407;48.884;9.126;2023-04-16T08:16:50;9.00;1.00
843;DHT22;407;48.884;9.126;2023-04-16T08:19:16;9.10;1.00
843;DHT22;407;48.884;9.126;2023-04-16T08:21:42;9.00;1.00
843;DHT22;407;48.884;9.126;2023-04-16T08:24:08;9.00;1.00
843;DHT22;407;48.884;9.126;2023-04-16T08:26:33;9.10;1.00
843;DHT22;407;48.884;9.126;2023-04-16T08:28:59;9.00;1.00
843;DHT22;407;48.884;9.126;2023-04-16T08:31:24;9.10;1.00
843;DHT22;407;48.884;9.126;2023-04-16T08:33:50;9.10;1.00
843;DHT22;407;48.884;9.126;2023-04-16T08:36:16;9.10;1.00
843;DHT22;407;48.884;9.126;2023-04-16T08:38:41;9.10;1.00
843;DHT22;407;48.884;9.126;2023-04-16T08:41:11;9.20;1.00
843;DHT22;407;48.884;9.126;2023-04-16T08:43:38;9.20;1.00
843;DHT22;407;48.884;9.126;2023-04-16T08:46:06;9.40;1.00
843;DHT22;407;48.884;9.126;2023-04-16T08:48:34;9.30;1.00
843;DHT22;407;48.884;9.126;2023-04-16T08:51:00;9.30;1.00
843;DHT22;407;48.884;9.126;2023-04-16T08:53:35;9.40;1.00
843;DHT22;407;48.884;9.126;2023-04-16T08:56:07;9.40;1.00
843;DHT22;407;48.884;9.126;2023-04-16T08:58:35;9.40;1.00
843;DHT22;407;48.884;9.126;2023-04-16T09:01:02;9.40;1.00
843;DHT22;407;48.884;9.126;2023-04-16T09:03:32;9.50;1.00
843;DHT22;407;48.884;9.126;2023-04-16T09:05:58;9.40;1.00
843;DHT22;407;48.884;9.126;2023-04-16T09:08:25;9.50;1.00
843;DHT22;407;48.884;9.126;2023-04-16T09:10:50;9.70;1.00
843;DHT22;407;48.884;9.126;2023-04-16T09:13:18;9.80;1.00
843;DHT22;407;48.884;9.126;2023-04-16T09:15:45;9.80;1.00
843;DHT22;407;48.884;9.126;2023-04-16T09:18:10;9.60;1.00
843;DHT22;407;48.884;9.126;2023-04-16T09:20:37;9.80;1.00
843;DHT22;407;48.884;9.126;2023-04-16T09:23:03;9.60;1.00
843;DHT22;407;48.884;9.126;2023-04-16T09:25:33;9.60;1.00
843;DHT22;407;48.884;9.126;2023-04-16T09:28:01;9.60;1.00
843;DHT22;407;48.884;9.126;2023-04-16T09:30:27;10.50;1.00
843;DHT22;407;48.884;9.126;2023-04-16T09:35:50;9.60;1.00
843;DHT22;407;48.884;9.126;2023-04-16T09:38:17;9.50;1.00
843;DHT22;407;48.884;9.126;2023-04-16T09:40:42;9.60;1.00
843;DHT22;407;48.884;9.126;2023-04-16T09:43:18;9.50;1.00
843;DHT22;407;48.884;9.126;2023-04-16T09:45:49;9.60;1.00
843;DHT22;407;48.884;9.126;2023-04-16T09:48:19;9.80;1.00
843;DHT22;407;48.884;9.126;2023-04-16T09:50:52;9.70;1.00
843;DHT22;407;48.884;9.126;2023-04-16T09:53:27;9.80;1.00
843;DHT22;407;48.884;9.126;2023-04-16T09:56:00;9.80;1.00
843;DHT22;407;48.884;9.126;2023-04-16T09:58:27;9.70;1.00
843;DHT22;407;48.884;9.126;2023-04-16T10:01:11;9.80;1.00
843;DHT22;407;48.884;9.126;2023-04-16T10:03:38;9.80;1.00
843;DHT22;407;48.884;9.126;2023-04-16T10:06:17;10.00;1.00
843;DHT22;407;48.884;9.126;2023-04-16T10:08:47;10.20;1.00
843;DHT22;407;48.884;9.126;2023-04-16T10:11:17;10.20;1.00
843;DHT22;407;48.884;9.126;2023-04-16T10:13:43;10.00;1.00
843;DHT22;407;48.884;9.126;2023-04-16T10:16:09;9.90;1.00
843;DHT22;407;48.884;9.126;2023-04-16T10:18:40;9.70;1.00
843;DHT22;407;48.884;9.126;2023-04-16T10:21:06;9.50;1.00
843;DHT22;407;48.884;9.126;2023-04-16T10:23:32;9.60;1.00
843;DHT22;407;48.884;9.126;2023-04-16T10:25:59;9.70;1.00
843;DHT22;407;48.884;9.126;2023-04-16T10:28:26;9.70;1.00
843;DHT22;407;48.884;9.126;2023-04-16T10:30:54;9.70;1.00
843;DHT22;407;48.884;9.126;2023-04-16T10:33:41;11.10;1.00
843;DHT22;407;48.884;9.126;2023-04-16T10:36:11;9.90;1.00
843;DHT22;407;48.884;9.126;2023-04-16T10:38:38;9.80;1.00
843;DHT22;407;48.884;9.126;2023-04-16T10:41:05;9.80;1.00
843;DHT22;407;48.884;9.126;2023-04-16T10:43:33;9.90;1.00
843;DHT22;407;48.884;9.126;2023-04-16T10:46:36;10.10;1.00
843;DHT22;407;48.884;9.126;2023-04-16T10:49:14;10.10;1.00
843;DHT22;407;48.884;9.126;2023-04-16T10:51:40;9.80;1.00
843;DHT22;407;48.884;9.126;2023-04-16T10:56:39;9.10;1.00
843;DHT22;407;48.884;9.126;2023-04-16T10:59:05;9.90;1.00
843;DHT22;407;48.884;9.126;2023-04-16T11:01:33;9.90;1.00
843;DHT22;407;48.884;9.126;2023-04-16T11:04:01;9.90;1.00
843;DHT22;407;48.884;9.126;2023-04-16T11:12:12;10.20;1.00
843;DHT22;407;48.884;9.126;2023-04-16T11:14:40;10.00;1.00
843;DHT22;407;48.884;9.126;2023-04-16T11:17:06;9.90;1.00
843;DHT22;407;48.884;9.126;2023-04-16T11:19:34;9.90;1.00
843;DHT22;407;48.884;9.126;2023-04-16T11:22:00;9.80;1.00
843;DHT22;407;48.884;9.126;2023-04-16T11:24:32;9.90;1.00
843;DHT22;407;48.884;9.126;2023-04-16T11:26:58;10.00;1.00
843;DHT22;407;48.884;9.126;2023-04-16T11:29:24;9.90;1.00
843;DHT22;407;48.884;9.126;2023-04-16T11:31:53;9.90;1.00
843;DHT22;407;48.884;9.126;2023-04-16T11:34:19;9.90;1.00
843;DHT22;407;48.884;9.126;2023-04-16T11:36:46;9.80;1.00
843;DHT22;407;48.884;9.126;2023-04-16T11:39:12;9.80;1.00
843;DHT22;407;48.884;9.126;2023-04-16T11:41:45;9.70;1.00
843;DHT22;407;48.884;9.126;2023-04-16T11:44:21;9.50;1.00
843;DHT22;407;48.884;9.126;2023-04-16T11:46:47;9.60;1.00
843;DHT22;407;48.884;9.126;2023-04-16T11:49:13;9.70;1.00
843;DHT22;407;48.884;9.126;2023-04-16T11:51:42;10.40;1.00
843;DHT22;407;48.884;9.126;2023-04-16T11:54:08;10.10;1.00
843;DHT22;407;48.884;9.126;2023-04-16T11:56:35;9.90;1.00
843;DHT22;407;48.884;9.126;2023-04-16T11:59:18;9.90;1.00
843;DHT22;407;48.884;9.126;2023-04-16T12:01:49;9.90;1.00
843;DHT22;407;48.884;9.126;2023-04-16T12:04:18;10.00;1.00
843;DHT22;407;48.884;9.126;2023-04-16T12:07:09;9.90;1.00
843;DHT22;407;48.884;9.126;2023-04-16T12:09:37;9.90;1.00
843;DHT22;407;48.884;9.126;2023-04-16T12:12:03;9.80;1.00
843;DHT22;407;48.884;9.126;2023-04-16T12:14:30;9.60;1.00
843;DHT22;407;48.884;9.126;2023-04-16T12:17:01;9.70;1.00
843;DHT22;407;48.884;9.126;2023-04-16T12:22:16;9.70;1.00
843;DHT22;407;48.884;9.126;2023-04-16T12:24:42;9.90;1.00
843;DHT22;407;48.884;9.126;2023-04-16T12:27:07;9.80;1.00
843;DHT22;407;48.884;9.126;2023-04-16T12:29:33;9.80;1.00
843;DHT22;407;48.884;9.126;2023-04-16T12:31:59;9.80;1.00
843;DHT22;407;48.884;9.126;2023-04-16T12:34:26;9.90;1.00
843;DHT22;407;48.884;9.126;2023-04-16T12:37:07;10.00;1.00
843;DHT22;407;48.884;9.126;2023-04-16T12:39:35;11.10;1.00
843;DHT22;407;48.884;9.126;2023-04-16T12:42:01;9.70;1.00
843;DHT22;407;48.884;9.126;2023-04-16T12:44:28;9.70;1.00
843;DHT22;407;48.884;9.126;2023-04-16T12:46:53;9.60;1.00
843;DHT22;407;48.884;9.126;2023-04-16T12:49:19;9.70;1.00
843;DHT22;407;48.884;9.126;2023-04-16T12:51:45;9.60;1.00
843;DHT22;407;48.884;9.126;2023-04-16T12:54:11;9.60;1.00
843;DHT22;407;48.884;9.126;2023-04-16T12:56:37;9.70;1.00
843;DHT22;407;48.884;9.126;2023-04-16T12:59:02;9.70;1.00
843;DHT22;407;48.884;9.126;2023-04-16T13:01:28;9.80;1.00
843;DHT22;407;48.884;9.126;2023-04-16T13:03:53;9.90;1.00
843;DHT22;407;48.884;9.126;2023-04-16T13:06:19;10.00;1.00
843;DHT22;407;48.884;9.126;2023-04-16T13:08:45;10.00;1.00
843;DHT22;407;48.884;9.126;2023-04-16T13:11:11;10.20;1.00
843;DHT22;407;48.884;9.126;2023-04-16T13:13:37;8.90;1.00
843;DHT22;407;48.884;9.126;2023-04-16T13:16:03;10.00;1.00
843;DHT22;407;48.884;9.126;2023-04-16T13:18:31;10.00;1.00
843;DHT22;407;48.884;9.126;2023-04-16T13:20:57;9.80;1.00
843;DHT22;407;48.884;9.126;2023-04-16T13:23:23;9.80;1.00
843;DHT22;407;48.884;9.126;2023-04-16T13:25:48;9.80;1.00
843;DHT22;407;48.884;9.126;2023-04-16T13:28:14;10.00;1.00
843;DHT22;407;48.884;9.126;2023-04-16T13:30:40;9.90;1.00
843;DHT22;407;48.884;9.126;2023-04-16T13:33:06;9.90;1.00
843;DHT22;407;48.884;9.126;2023-04-16T13:35:31;10.00;1.00
843;DHT22;407;48.884;9.126;2023-04-16T13:37:57;9.90;1.00
843;DHT22;407;48.884;9.126;2023-04-16T13:40:23;9.90;1.00
843;DHT22;407;48.884;9.126;2023-04-16T13:42:48;10.30;1.00
843;DHT22;407;48.884;9.126;2023-04-16T13:45:14;9.90;1.00
843;DHT22;407;48.884;9.126;2023-04-16T13:47:40;10.00;1.00
843;DHT22;407;48.884;9.126;2023-04-16T13:50:09;9.90;1.00
843;DHT22;407;48.884;9.126;2023-04-16T13:52:35;9.80;1.00
843;DHT22;407;48.884;9.126;2023-04-16T13:55:01;10.00;1.00
843;DHT22;407;48.884;9.126;2023-04-16T13:57:29;9.90;1.00
843;DHT22;407;48.884;9.126;2023-04-16T13:59:56;10.10;1.00
843;DHT22;407;48.884;9.126;2023-04-16T14:02:22;10.20;1.00
843;DHT22;407;48.884;9.126;2023-04-16T14:04:48;10.20;1.00
843;DHT22;407;48.884;9.126;2023-04-16T14:07:13;10.10;1.00
843;DHT22;407;48.884;9.126;2023-04-16T14:09:39;10.10;1.00
843;DHT22;407;48.884;9.126;2023-04-16T14:12:05;10.20;1.00
843;DHT22;407;48.884;9.126;2023-04-16T14:14:31;10.20;1.00
843;DHT22;407;48.884;9.126;2023-04-16T14:16:59;9.90;1.00
843;DHT22;407;48.884;9.126;2023-04-16T14:19:26;9.90;1.00
843;DHT22;407;48.884;9.126;2023-04-16T14:21:51;10.10;1.00
843;DHT22;407;48.884;9.126;2023-04-16T14:24:17;10.10;1.00
843;DHT22;407;48.884;9.126;2023-04-16T14:26:43;10.00;1.00
843;DHT22;407;48.884;9.126;2023-04-16T14:29:08;10.10;1.00
843;DHT22;407;48.884;9.126;2023-04-16T14:31:35;10.10;1.00
843;DHT22;407;48.884;9.126;2023-04-16T14:34:01;10.10;1.00
843;DHT22;407;48.884;9.126;2023-04-16T14:36:26;10.00;1.00
843;DHT22;407;48.884;9.126;2023-04-16T14:38:52;9.90;1.00
843;DHT22;407;48.884;9.126;2023-04-16T14:41:18;9.90;1.00
843;DHT22;407;48.884;9.126;2023-04-16T14:43:43;10.00;1.00
843;DHT22;407;48.884;9.126;2023-04-16T14:46:09;10.10;1.00
843;DHT22;407;48.884;9.126;2023-04-16T14:48:35;10.10;1.00
843;DHT22;407;48.884;9.126;2023-04-16T14:51:00;10.10;1.00
843;DHT22;407;48.884;9.126;2023-04-16T14:53:26;10.00;1.00
843;DHT22;407;48.884;9.126;2023-04-16T14:55:53;10.00;1.00
843;DHT22;407;48.884;9.126;2023-04-16T14:58:19;9.90;1.00
843;DHT22;407;48.884;9.126;2023-04-16T15:00:44;10.00;1.00
843;DHT22;407;48.884;9.126;2023-04-16T15:03:10;10.10;1.00
843;DHT22;407;48.884;9.126;2023-04-16T15:05:36;10.00;1.00
843;DHT22;407;48.884;9.126;2023-04-16T15:08:01;10.10;1.00
843;DHT22;407;48.884;9.126;2023-04-16T15:10:29;10.10;1.00
843;DHT22;407;48.884;9.126;2023-04-16T15:12:54;10.10;1.00
843;DHT22;407;48.884;9.126;2023-04-16T15:15:20;10.10;1.00
843;DHT22;407;48.884;9.126;2023-04-16T15:17:46;10.10;1.00
843;DHT22;407;48.884;9.126;2023-04-16T15:20:12;10.00;1.00
843;DHT22;407;48.884;9.126;2023-04-16T15:22:38;9.90;10.30
843;DHT22;407;48.884;9.126;2023-04-16T15:25:04;9.70;27.00
843;DHT22;407;48.884;9.126;2023-04-16T15:27:30;9.70;39.00
843;DHT22;407;48.884;9.126;2023-04-16T15:29:56;9.70;51.80
843;DHT22;407;48.884;9.126;2023-04-16T15:32:21;9.70;54.40
843;DHT22;407;48.884;9.126;2023-04-16T15:34:47;9.80;58.50
843;DHT22;407;48.884;9.126;2023-04-16T15:37:13;9.90;42.60
843;DHT22;407;48.884;9.126;2023-04-16T15:39:39;10.00;32.90
843;DHT22;407;48.884;9.126;2023-04-16T15:42:05;10.00;23.70
843;DHT22;407;48.884;9.126;2023-04-16T15:44:31;9.80;22.50
843;DHT22;407;48.884;9.126;2023-04-16T15:46:58;9.90;24.80
843;DHT22;407;48.884;9.126;2023-04-16T15:49:24;9.90;37.60
843;DHT22;407;48.884;9.126;2023-04-16T15:51:50;9.90;39.80
843;DHT22;407;48.884;9.126;2023-04-16T15:54:16;9.90;31.40
843;DHT22;407;48.884;9.126;2023-04-16T15:56:43;10.00;32.40
843;DHT22;407;48.884;9.126;2023-04-16T15:59:10;10.00;29.20
843;DHT22;407;48.884;9.126;2023-04-16T16:01:36;10.00;20.60
843;DHT22;407;48.884;9.126;2023-04-16T16:04:02;9.90;34.00
843;DHT22;407;48.884;9.126;2023-04-16T16:06:27;9.90;43.80
843;DHT22;407;48.884;9.126;2023-04-16T16:08:53;10.00;40.40
843;DHT22;407;48.884;9.126;2023-04-16T16:11:19;10.00;37.10
843;DHT22;407;48.884;9.126;2023-04-16T16:13:45;10.00;51.60
843;DHT22;407;48.884;9.126;2023-04-16T16:16:10;10.00;46.60
843;DHT22;407;48.884;9.126;2023-04-16T16:18:36;10.20;11.10
843;DHT22;407;48.884;9.126;2023-04-16T16:21:02;10.10;8.50
843;DHT22;407;48.884;9.126;2023-04-16T16:23:28;10.20;1.00
843;DHT22;407;48.884;9.126;2023-04-16T16:25:53;10.20;1.00
843;DHT22;407;48.884;9.126;2023-04-16T16:28:19;10.20;1.00
843;DHT22;407;48.884;9.126;2023-04-16T16:30:45;10.20;3.00
843;DHT22;407;48.884;9.126;2023-04-16T16:33:13;10.30;1.00
843;DHT22;407;48.884;9.126;2023-04-16T16:35:38;10.40;1.00
843;DHT22;407;48.884;9.126;2023-04-16T16:38:04;10.40;1.00
843;DHT22;407;48.884;9.126;2023-04-16T16:40:30;10.40;1.00
843;DHT22;407;48.884;9.126;2023-04-16T16:42:56;10.50;1.00
843;DHT22;407;48.884;9.126;2023-04-16T16:45:21;10.40;1.00
843;DHT22;407;48.884;9.126;2023-04-16T16:47:47;10.40;1.00
843;DHT22;407;48.884;9.126;2023-04-16T16:50:13;10.30;1.00
843;DHT22;407;48.884;9.126;2023-04-16T16:52:39;10.40;1.00
843;DHT22;407;48.884;9.126;2023-04-16T16:55:05;10.50;1.00
843;DHT22;407;48.884;9.126;2023-04-16T16:57:33;10.50;1.00
843;DHT22;407;48.884;9.126;2023-04-16T16:59:58;10.50;1.00
843;DHT22;407;48.884;9.126;2023-04-16T17:02:24;10.50;1.00
843;DHT22;407;48.884;9.126;2023-04-16T17:04:50;10.50;1.00
843;DHT22;407;48.884;9.126;2023-04-16T17:07:17;10.40;1.00